Etusivu
METAR-TAF:

METAR-TAF

Lentoasemat :

Japanese Ground Self Defense Force

Tokachi-Obihiro, Japani

Leveyspiiri: 42-54N, Pituuspiiri: 143-10E, korkeus merenpinnasta: 84 m

Tämänhetkinen sää

Tämä raportti tehtiin 13 tuntia ja 45 minuuttia sitten, kello 06.28 UTC
Tuuli 3 kn idästä/kaakosta
Lämpötila 17°C
Kosteus 94%
Ilmanpaine 1014 hPa
Näkyvyys: 2000 m
Muutamia pilviä 300 ft:n korkeudessa
Hajonneita pilviä 600 ft:n korkeudessa
Hajonneita pilviä 800 ft:n korkeudessa
heikkoa tihkusadetta, utua

METAR: RJCT 200628Z 11003KT 2000 -DZ BR FEW003 BKN006 BKN008 17/16 Q1014 RMK 1ST003 6ST006 7ST008 A2997

Aika: 05:13 (20:13 UTC)


TAF: puuttuu

Säähavainnot ja -ennusteet yli 4000 lentoasemalta (METAR- ja TAF-raportit).

Käytössä olevat sääasemat on merkitty karttaan keltaisilla ja punaisilla pisteillä.

Aseta hiiri pisteen päälle nähdäksesi sääaseman nimen.

Klikkaa sitten nähdäksesi säähavainnot ja -ennusteet.

Kartan vaihtaminen: klikkaa mustalla rastilla varustettuja vihreitä pisteitä, niin voit zoomata sisään; viivalla varustettua vihreää pistettä, niin voit zoomata ulos tai vihreitä nuolia, niin pääset viereisille kartoille.


METAR-TAF: